• Join FlightAware (Why Join?)
  • Login
  • US Flag 
06:57PM EST


 

Airport Tracker/Info


-or-


 

Live Flight TrackerFlight Track Log ✈ N225SB ✈ 13-Nov-2013 ✈ KROC - KFTY

Flight Track Log - Related Links

Times and Time Zones

All times are in EST time to prevent confusion due to time zone crossing. See the N225SB flight status page for this flight to view local times or setup timezone preferences in your user account.

Time Position Orientation Groundspeed Altitude Reporting Facility
EST Latitude Longitude Course Direction KTS MPH feet Rate Location/Type
02:14PM 43.1236 -77.6889 270° West 174 200 1,600  Level Cleveland Center
02:14PM 43.1236 -77.7136 270° West 189 217 3,100 3,840 Climbing Cleveland Center
02:15PM 43.0667 -77.7394 198° South 243 280 7,600 3,300 Climbing Cleveland Center
02:16PM 42.9703 -77.7425 181° South 301 346 10,000 1,500 Climbing Cleveland Center
02:17PM 42.8769 -77.7553 186° South 341 392 10,800 1,200 Climbing Cleveland Center
02:19PM 42.7822 -77.8025 200° South 363 418 12,500 2,100 Climbing Cleveland Center
02:20PM 42.6825 -77.8572 202° Southwest 394 453 15,200 2,760 Climbing Cleveland Center
02:21PM 42.5731 -77.9528 213° Southwest 396 456 18,300 2,880 Climbing Cleveland Center
02:22PM 42.4825 -78.0283 212° Southwest 387 445 21,200 2,520 Climbing Cleveland Center
02:23PM 42.3944 -78.1022 212° Southwest 377 434 23,600 2,040 Climbing Cleveland Center
02:24PM 42.3028 -78.1772 211° Southwest 385 443 25,500 1,440 Climbing Cleveland Center
02:25PM 42.2081 -78.2575 212° Southwest 401 461 26,600 720 Climbing Cleveland Center
02:26PM 42.0950 -78.3506 211° Southwest 433 498 27,000 480 Climbing Cleveland Center
02:27PM 41.9869 -78.4422 212° Southwest 455 524 27,700 660 Climbing Cleveland Center
02:28PM 41.8733 -78.5350 211° Southwest 474 545 28,400 840 Climbing Cleveland Center
02:29PM 41.7353 -78.6486 212° Southwest 485 558 29,500 960 Climbing Cleveland Center
02:30PM 41.6214 -78.7417 211° Southwest 485 558 30,400 840 Climbing Cleveland Center
02:31PM 41.5053 -78.8358 211° Southwest 492 566 31,300 840 Climbing Cleveland Center
02:32PM 41.3892 -78.9278 211° Southwest 491 565 32,200 840 Climbing Cleveland Center
02:33PM 41.2494 -79.0419 212° Southwest 496 571 33,100 720 Climbing Cleveland Center
02:34PM 41.1314 -79.1358 211° Southwest 500 575 33,800 720 Climbing Cleveland Center
02:35PM 41.0047 -79.2378 211° Southwest 502 578 34,700 840 Climbing Cleveland Center
02:36PM 40.8858 -79.3317 211° Southwest 499 574 35,600 780 Climbing Cleveland Center
02:37PM 40.7678 -79.4258 211° Southwest 495 570 36,400 720 Climbing Cleveland Center
02:38PM 40.6503 -79.5178 211° Southwest 490 564 37,200 780 Climbing Cleveland Center
02:39PM 40.5361 -79.6078 211° Southwest 481 554 38,100 840 Climbing Cleveland Center
02:40PM 40.4236 -79.6944 210° Southwest 469 540 39,000 420 Climbing Cleveland Center
02:41PM 40.3119 -79.7822 211° Southwest 463 533 39,000 120 Level Cleveland Center
02:42PM 40.1750 -79.8878 211° Southwest 469 540 39,300 480 Climbing Cleveland Center
02:43PM 40.0650 -79.9728 211° Southwest 458 527 40,000 300 Climbing Cleveland Center
02:44PM 39.9556 -80.0569 211° Southwest 451 519 40,000  Level Cleveland Center
02:45PM 39.8483 -80.1386 210° Southwest 452 520 40,000  Level Cleveland Center
02:46PM 39.7394 -80.2217 210° Southwest 454 522 40,000  Level Cleveland Center
02:48PM 39.6297 -80.3050 210° Southwest 454 522 40,000  Level Cleveland Center
02:48PM 39.5558 -80.3608 210° Southwest 457 526 40,000  Level Indianapolis Center
02:49PM 39.4444 -80.4464 211° Southwest 463 533 40,000  Level Indianapolis Center
02:50PM 39.3344 -80.5289 210° Southwest 459 528 40,000  Level Indianapolis Center
02:51PM 39.2244 -80.6144 211° Southwest 460 529 40,000  Level Indianapolis Center
02:52PM 39.1119 -80.6986 210° Southwest 462 532 40,000  Level Indianapolis Center
02:53PM 38.9781 -80.7981 210° Southwest 462 532 40,000  Level Indianapolis Center
02:54PM 38.8661 -80.8811 210° Southwest 461 531 40,000  Level Indianapolis Center
02:55PM 38.7531 -80.9636 210° Southwest 464 534 40,000  Level Indianapolis Center
02:56PM 38.6414 -81.0472 210° Southwest 460 529 40,000  Level Indianapolis Center
02:57PM 38.5281 -81.1294 210° Southwest 461 531 40,000  Level Indianapolis Center
02:58PM 38.4158 -81.2117 210° Southwest 459 528 40,000  Level Indianapolis Center
02:59PM 38.3036 -81.2931 210° Southwest 454 522 40,000  Level Indianapolis Center
03:00PM 38.1928 -81.3736 210° Southwest 459 528 40,000  Level Indianapolis Center
03:02PM 38.0811 -81.4533 209° Southwest 457 526 40,000  Level Indianapolis Center
03:03PM 37.9486 -81.5500 210° Southwest 455 524 40,000  Level Indianapolis Center
03:04PM 37.8367 -81.6294 209° Southwest 458 527 40,000  Level Indianapolis Center
03:05PM 37.7300 -81.7047 209° Southwest 458 527 40,000  Level Indianapolis Center
03:06PM 37.6203 -81.7844 210° Southwest 453 521 40,000  Level Indianapolis Center
03:07PM 37.4897 -81.8756 209° Southwest 456 525 40,000  Level Indianapolis Center
03:08PM 37.3800 -81.9550 210° Southwest 452 520 40,000  Level Indianapolis Center
03:09PM 37.2694 -82.0314 209° Southwest 452 520 40,000  Level Indianapolis Center
03:10PM 37.1600 -82.1092 210° Southwest 451 519 40,000  Level Indianapolis Center
03:11PM 37.0506 -82.1869 210° Southwest 449 517 40,000  Level Indianapolis Center
03:12PM 36.9406 -82.2619 209° Southwest 448 516 40,000  Level Indianapolis Center
03:13PM 36.8144 -82.3494 209° Southwest 441 507 40,000 -360 Level Indianapolis Center
03:14PM 36.7078 -82.4250 210° Southwest 437 503 39,300 -900 Descending Indianapolis Center
03:15PM 36.6003 -82.4983 209° Southwest 435 501 38,200 -900 Descending Indianapolis Center
03:15PM 36.5414 -82.5400 210° Southwest 447 514 38,000 -180 Descending Atlanta Center
03:16PM 36.4339 -82.6144 209° Southwest 447 514 38,000  Level Atlanta Center
03:17PM 36.3242 -82.6883 208° Southwest 452 520 38,000  Level Atlanta Center
03:18PM 36.2164 -82.7622 209° Southwest 452 520 38,000  Level Atlanta Center
03:19PM 36.1067 -82.8358 208° Southwest 452 520 38,000 -360 Level Atlanta Center
03:20PM 36.0031 -82.9069 209° Southwest 444 511 37,300 -1,320 Descending Atlanta Center
03:21PM 35.8953 -82.9828 210° Southwest 439 505 35,400 -1,200 Descending Atlanta Center
03:22PM 35.7894 -83.0531 208° Southwest 439 505 35,000 -240 Descending Atlanta Center
03:23PM 35.6900 -83.1386 215° Southwest 439 505 35,000 -180 Level Atlanta Center
03:24PM 35.5986 -83.2111 213° Southwest 444 511 34,700 -1,680 Descending Atlanta Center
03:25PM 35.4886 -83.3017 214° Southwest 437 503 31,700 -2,760 Descending Atlanta Center
03:26PM 35.3869 -83.3892 215° Southwest 442 509 29,200 -2,400 Descending Atlanta Center
03:27PM 35.2789 -83.4792 214° Southwest 450 518 26,900 -2,340 Descending Atlanta Center
03:28PM 35.1708 -83.5686 214° Southwest 469 540 24,600 -2,400 Descending Atlanta Center
03:29PM 35.0647 -83.6531 213° Southwest 469 540 22,200 -2,340 Descending Atlanta Center
03:30PM 34.9583 -83.7269 210° Southwest 457 526 20,000 -2,100 Descending Atlanta Center
03:31PM 34.8606 -83.7756 202° Southwest 433 498 18,100 -1,800 Descending Atlanta Center
03:32PM 34.7583 -83.8314 204° Southwest 418 481 16,400 -1,920 Descending Atlanta Center
03:33PM 34.6542 -83.8872 204° Southwest 413 475 14,300 -2,040 Descending Atlanta Center
03:34PM 34.5581 -83.9403 204° Southwest 389 448 12,400 -1,860 Descending Atlanta Center
03:35PM 34.4725 -83.9883 205° Southwest 350 403 10,600 -1,680 Descending Atlanta Center
03:36PM 34.3892 -84.0336 204° Southwest 326 375 9,100 -1,320 Descending Atlanta Center
03:37PM 34.3119 -84.0739 203° Southwest 301 346 8,000 -600 Descending Atlanta Center
03:38PM 34.2431 -84.1117 204° Southwest 295 339 8,000 -660 Level Atlanta Center
03:39PM 34.1992 -84.1869 235° Southwest 268 308 6,700 -1,020 Descending Atlanta Center
03:40PM 34.1614 -84.2697 241° Southwest 278 320 6,000 -900 Descending Atlanta Center
03:41PM 34.1153 -84.3450 234° Southwest 283 326 4,900 -1,020 Descending Atlanta Center
03:42PM 34.0756 -84.4150 236° Southwest 278 320 4,000 -480 Descending Atlanta Center
03:43PM 34.0397 -84.4800 236° Southwest 248 285 4,000  Level Atlanta Center
03:44PM 33.9958 -84.5250 220° Southwest 223 257 4,000 -60 Level Atlanta Center
03:45PM 33.9331 -84.5269 181° South 207 238 3,900 -600 Descending Atlanta Center
03:46PM 33.8642 -84.5217 176° South 230 265 2,900 -840 Descending Atlanta Center
03:47PM 33.8500 -84.5000 128° Southeast 186 214 2,600 -660 Descending Atlanta TRACON
03:48PM 33.8000 -84.4667 151° Southeast 157 181 1,800 -780 Descending Atlanta TRACON
03:50PM 33.7667 -84.5167 197° South  Level FlightAware Approximate
03:57PM 33.7791 -84.5214 197° South  Level Estimated
03:58PM 33.7791 -84.5214 197° South  Level Estimated